LPPD Airport Information

Runway Information
Runway 12 Length 8192 ft width 148 ft
Elevation 259 ft Threshold 0 ft Heading 112
Runway 30 Length 8192 ft Width 148 ft
Elevation 187 ft Threshold 787 ft Heading 292
Airport Frequencies
Type APP Name APP Frequency 119.4 MHZ
Type TWR Name TWR Frequency 118.3 MHZ
Airport Navaids
Type NDB Name Ponta Delgada Frequency 371 KHZ
Type NDB Name Ponta Delgada Frequency 351 KHZ
Type VORTAC Name Sao Miguel Frequency 114500 KHZ
Airport Weather Information & NOTAM
ADDS - METARS form results

(2357 UTC 18 January 2018)
 
METAR text: LPPD 182330Z 34004KT 9999 FEW016 BKN030 14/11 Q1033
Conditions at: LPPD (PONTA DELGADA/NO, PT) observed 2330 UTC 18 January 2018
Temperature: 14.0°C (57°F)
Dewpoint: 11.0°C (52°F) [RH = 82%]
Pressure (altimeter): 30.50 inches Hg (1033.0 mb)
Winds: from the NNW (340 degrees) at 5 MPH (4 knots; 2.1 m/s)
Visibility: 6 or more miles (10+ km)
Ceiling: 3000 feet AGL
Clouds: few clouds at 1600 feet AGL
broken clouds at 3000 feet AGL
Weather: no significant weather observed at this time

METAR text: LPPD 182300Z 30005KT 260V320 9999 FEW015 BKN030 14/11 Q1033
Conditions at: LPPD (PONTA DELGADA/NO, PT) observed 2300 UTC 18 January 2018
Temperature: 14.0°C (57°F)
Dewpoint: 11.0°C (52°F) [RH = 82%]
Pressure (altimeter): 30.50 inches Hg (1033.0 mb)
Winds: from the WNW (300 degrees) at 6 MPH (5 knots; 2.6 m/s)
Visibility: 6 or more miles (10+ km)
Ceiling: 3000 feet AGL
Clouds: few clouds at 1500 feet AGL
broken clouds at 3000 feet AGL
Weather: no significant weather observed at this time